createdAt,value
2018-12-23T00:00:50.272Z,82.90
2018-12-23T00:05:25.147Z,82.70
2018-12-23T00:10:00.006Z,83.60
2018-12-23T00:14:34.898Z,84.20
2018-12-23T00:19:09.771Z,83.90
2018-12-23T00:23:44.688Z,84.00
2018-12-23T00:28:19.595Z,83.20
2018-12-23T00:32:54.515Z,82.60
2018-12-23T00:37:29.400Z,83.10
2018-12-23T00:42:04.447Z,82.50
2018-12-23T00:46:39.335Z,84.30
2018-12-23T00:51:14.232Z,83.70
2018-12-23T00:55:49.189Z,84.10
2018-12-23T01:00:24.123Z,83.70
2018-12-23T01:04:59.012Z,83.40
2018-12-23T01:09:36.203Z,83.20
2018-12-23T01:14:10.853Z,84.20
2018-12-23T01:18:45.762Z,85.20
2018-12-23T01:23:20.653Z,84.80
2018-12-23T01:27:55.571Z,83.70
2018-12-23T01:32:30.486Z,84.30
2018-12-23T01:37:05.374Z,83.20
2018-12-23T01:41:40.303Z,84.60
2018-12-23T01:46:15.219Z,84.50
2018-12-23T01:50:50.169Z,83.90
2018-12-23T01:55:25.359Z,84.40
2018-12-23T02:00:00.231Z,84.40
2018-12-23T02:04:35.167Z,84.80
2018-12-23T02:09:10.061Z,84.60
2018-12-23T02:13:44.938Z,83.20
2018-12-23T02:18:19.802Z,84.10
2018-12-23T02:22:54.711Z,84.00
2018-12-23T02:27:29.579Z,84.60
2018-12-23T02:32:04.475Z,84.30
2018-12-23T02:36:39.359Z,85.10
2018-12-23T02:41:14.244Z,84.50
2018-12-23T02:45:49.125Z,83.60
2018-12-23T02:50:24.031Z,84.50
2018-12-23T02:54:58.887Z,84.30
2018-12-23T02:59:33.786Z,83.70
2018-12-23T03:04:08.652Z,83.60
2018-12-23T03:08:44.127Z,83.00
2018-12-23T03:13:18.978Z,83.10
2018-12-23T03:17:53.867Z,84.00
2018-12-23T03:22:28.731Z,84.80
2018-12-23T03:27:03.609Z,85.30
2018-12-23T03:31:38.483Z,85.00
2018-12-23T03:36:15.187Z,85.10
2018-12-23T03:40:50.219Z,85.00
2018-12-23T03:45:25.122Z,85.20
2018-12-23T03:49:59.997Z,85.40
2018-12-23T03:54:34.881Z,85.30
2018-12-23T03:59:09.744Z,83.70
2018-12-23T04:03:44.763Z,85.30
2018-12-23T04:08:19.632Z,85.10
2018-12-23T04:12:54.532Z,85.60
2018-12-23T04:17:29.463Z,85.60
2018-12-23T04:22:04.569Z,86.30
2018-12-23T04:26:40.591Z,86.60
2018-12-23T04:31:15.476Z,87.10
2018-12-23T04:35:50.371Z,86.00
2018-12-23T04:40:25.378Z,86.30
2018-12-23T04:45:00.248Z,86.70
2018-12-23T04:49:35.131Z,86.40
2018-12-23T04:54:09.995Z,86.80
2018-12-23T04:58:44.911Z,86.80
2018-12-23T05:03:19.772Z,85.40
2018-12-23T05:07:54.688Z,85.90
2018-12-23T05:12:29.558Z,85.00
2018-12-23T05:17:04.471Z,85.20
2018-12-23T05:21:39.327Z,86.00
2018-12-23T05:26:14.213Z,85.50
2018-12-23T05:30:49.087Z,85.90
2018-12-23T05:35:23.969Z,85.70
2018-12-23T05:39:58.840Z,85.50
2018-12-23T05:44:33.736Z,85.80
2018-12-23T05:49:08.606Z,86.70
2018-12-23T05:53:43.491Z,86.90
2018-12-23T05:58:18.368Z,86.70
2018-12-23T06:02:53.279Z,86.60
2018-12-23T06:07:28.148Z,86.00
2018-12-23T06:12:03.046Z,83.40
2018-12-23T06:16:37.921Z,84.10
2018-12-23T06:21:12.831Z,83.60
2018-12-23T06:25:47.694Z,83.70
2018-12-23T06:30:22.592Z,84.80
2018-12-23T06:34:57.459Z,83.70
2018-12-23T06:39:32.347Z,83.90
2018-12-23T06:44:07.224Z,84.00
2018-12-23T06:48:42.125Z,83.50
2018-12-23T06:53:17.000Z,84.00
2018-12-23T06:57:51.888Z,84.80
2018-12-23T07:02:26.757Z,85.10
2018-12-23T07:07:01.664Z,84.90
2018-12-23T07:11:36.527Z,84.90
2018-12-23T07:16:11.430Z,85.90
2018-12-23T07:20:46.297Z,84.80
2018-12-23T07:25:22.839Z,83.70
2018-12-23T07:29:57.711Z,84.40
2018-12-23T07:34:32.600Z,83.90
2018-12-23T07:39:07.482Z,84.30
2018-12-23T07:43:43.461Z,84.60
2018-12-23T07:48:18.304Z,84.60
2018-12-23T07:52:53.191Z,85.00
2018-12-23T07:57:28.056Z,84.30
2018-12-23T08:02:03.078Z,83.80
2018-12-23T08:06:38.228Z,84.30
2018-12-23T08:11:13.121Z,84.10
2018-12-23T08:15:48.015Z,84.10
2018-12-23T08:20:22.903Z,84.70
2018-12-23T08:24:57.779Z,83.80
2018-12-23T08:29:32.707Z,83.20
2018-12-23T08:34:07.582Z,81.00
2018-12-23T08:38:42.703Z,82.80
2018-12-23T08:43:17.572Z,83.00
2018-12-23T08:47:52.481Z,83.30
2018-12-23T08:52:27.388Z,82.10
2018-12-23T08:57:02.296Z,82.80
2018-12-23T09:01:37.159Z,83.20
2018-12-23T09:06:12.051Z,82.00
2018-12-23T09:10:46.923Z,82.60
2018-12-23T09:15:21.816Z,82.30
2018-12-23T09:19:56.688Z,81.40
2018-12-23T09:24:31.628Z,79.50
2018-12-23T09:29:06.509Z,79.30
2018-12-23T09:33:41.440Z,79.60
2018-12-23T09:38:16.360Z,78.90
2018-12-23T09:42:51.295Z,78.90
2018-12-23T09:47:26.255Z,80.60
2018-12-23T09:52:01.193Z,81.60
2018-12-23T09:56:36.104Z,81.00
2018-12-23T10:01:11.003Z,80.60
2018-12-23T10:05:45.892Z,79.60
2018-12-23T10:10:28.163Z,78.70
2018-12-23T10:14:57.624Z,77.20
2018-12-23T10:19:32.541Z,79.00
2018-12-23T10:24:07.431Z,77.00
2018-12-23T10:28:42.323Z,78.70
2018-12-23T10:33:17.345Z,77.30
2018-12-23T10:37:52.250Z,77.90
2018-12-23T10:42:27.119Z,78.20
2018-12-23T10:47:02.146Z,77.20
2018-12-23T10:51:37.011Z,79.00
2018-12-23T10:56:12.299Z,76.80
2018-12-23T11:00:47.163Z,78.20
2018-12-23T11:05:22.068Z,78.20
2018-12-23T11:10:01.901Z,76.20
2018-12-23T11:14:33.860Z,78.70
2018-12-23T11:19:08.787Z,79.00
2018-12-23T11:23:43.795Z,78.80
2018-12-23T11:28:18.901Z,79.50
2018-12-23T11:32:53.756Z,80.10
2018-12-23T11:37:28.631Z,80.60
2018-12-23T11:42:03.575Z,81.20
2018-12-23T11:46:38.447Z,81.90
2018-12-23T11:51:13.332Z,81.40
2018-12-23T11:55:48.209Z,81.00
2018-12-23T12:00:23.099Z,81.30
2018-12-23T12:04:57.967Z,80.90
2018-12-23T12:09:32.974Z,81.70
2018-12-23T12:14:07.840Z,81.30
2018-12-23T12:18:42.741Z,81.30
2018-12-23T12:23:17.652Z,81.40
2018-12-23T12:27:52.567Z,81.00
2018-12-23T12:32:27.440Z,78.50
2018-12-23T12:37:02.339Z,78.90
2018-12-23T12:41:37.217Z,77.70
2018-12-23T12:46:12.144Z,77.80
2018-12-23T12:50:47.043Z,79.30
2018-12-23T12:55:21.957Z,80.70
2018-12-23T12:59:56.863Z,79.30
2018-12-23T13:04:31.750Z,77.40
2018-12-23T13:09:07.389Z,77.80
2018-12-23T13:13:42.364Z,78.80
2018-12-23T13:18:17.241Z,79.30
2018-12-23T13:23:36.103Z,79.70
2018-12-23T13:28:11.108Z,80.20
2018-12-23T13:32:45.992Z,81.90
2018-12-23T13:37:20.855Z,82.10
2018-12-23T13:44:30.412Z,81.70
2018-12-23T13:50:20.837Z,81.20
2018-12-23T13:55:29.676Z,82.00
2018-12-23T14:00:19.764Z,82.90
2018-12-23T14:05:09.647Z,84.70
2018-12-23T14:10:13.383Z,83.20
2018-12-23T14:14:48.260Z,84.90
2018-12-23T14:19:24.673Z,84.60
2018-12-23T14:23:59.544Z,84.60
2018-12-23T14:28:34.524Z,84.80
2018-12-23T14:33:09.398Z,85.10
2018-12-23T14:37:44.292Z,86.20
2018-12-23T14:42:19.159Z,86.20
2018-12-23T14:46:54.045Z,85.90
2018-12-23T14:51:28.942Z,85.60
2018-12-23T14:56:03.948Z,86.60
2018-12-23T15:00:39.011Z,85.70
2018-12-23T15:05:13.914Z,86.80
2018-12-23T15:09:48.784Z,86.80
2018-12-23T15:14:23.663Z,86.00
2018-12-23T15:19:00.575Z,86.00
2018-12-23T15:23:35.568Z,86.00
2018-12-23T15:28:10.438Z,86.20
2018-12-23T15:32:45.324Z,86.70
2018-12-23T15:37:20.216Z,85.80
2018-12-23T15:41:55.124Z,86.90
2018-12-23T15:46:30.029Z,86.40
2018-12-23T15:51:04.938Z,86.50
2018-12-23T15:55:39.831Z,85.90
2018-12-23T16:00:14.735Z,85.70
2018-12-23T16:04:49.591Z,86.50
2018-12-23T16:09:24.480Z,86.40
2018-12-23T16:13:59.363Z,85.30
2018-12-23T16:18:34.248Z,85.50
2018-12-23T16:23:09.116Z,86.00
2018-12-23T16:27:44.016Z,85.80
2018-12-23T16:32:18.874Z,85.10
2018-12-23T16:36:53.767Z,84.60
2018-12-23T16:41:28.631Z,85.10
2018-12-23T16:46:03.524Z,85.00
2018-12-23T16:50:38.416Z,84.10
2018-12-23T16:55:13.331Z,85.10
2018-12-23T16:59:48.240Z,85.30
2018-12-23T17:04:23.140Z,85.50
2018-12-23T17:08:58.027Z,85.10
2018-12-23T17:13:33.327Z,86.00
2018-12-23T19:02:45.301Z,86.00
2018-12-23T19:07:21.128Z,85.20
2018-12-23T19:12:50.196Z,85.60
2018-12-23T19:18:19.052Z,85.10
2018-12-23T19:23:50.725Z,85.90
2018-12-23T19:29:00.015Z,86.10
2018-12-23T19:34:13.151Z,85.50
2018-12-23T19:39:22.197Z,84.60
2018-12-23T19:44:27.129Z,85.80
2018-12-23T19:49:53.124Z,85.50
2018-12-23T19:55:20.784Z,84.50
2018-12-23T20:00:36.302Z,85.50
2018-12-23T20:05:47.821Z,85.00
2018-12-23T20:11:04.201Z,85.90
2018-12-23T20:16:26.084Z,85.70
2018-12-23T20:21:54.881Z,85.90
2018-12-23T20:27:20.484Z,85.30
2018-12-23T20:32:31.796Z,85.90
2018-12-23T20:38:16.160Z,86.10
2018-12-23T20:43:37.913Z,87.20
2018-12-23T20:48:58.828Z,87.60
2018-12-23T20:54:11.761Z,87.50
2018-12-23T20:59:22.701Z,88.10
2018-12-23T21:04:31.336Z,87.90
2018-12-23T21:09:42.025Z,87.00
2018-12-23T21:14:57.884Z,86.90
2018-12-23T21:20:09.413Z,87.30
2018-12-23T21:25:29.701Z,87.40
2018-12-23T21:30:34.210Z,87.50
2018-12-23T21:35:49.586Z,87.30
2018-12-23T21:41:11.724Z,86.90
2018-12-23T21:46:07.852Z,86.80
2018-12-23T21:51:20.741Z,86.40
2018-12-23T21:56:46.641Z,87.50
2018-12-23T22:01:59.141Z,86.90
2018-12-23T22:07:19.515Z,87.40
2018-12-23T22:12:43.054Z,87.40
2018-12-23T22:17:18.837Z,86.90
2018-12-23T22:21:54.723Z,87.40
2018-12-23T22:26:30.469Z,87.20
2018-12-23T22:31:06.231Z,86.60
2018-12-23T22:35:41.974Z,86.60
2018-12-23T22:40:18.195Z,87.30
2018-12-23T22:44:53.941Z,87.30
2018-12-23T22:49:29.708Z,86.50
2018-12-23T22:54:05.456Z,88.10
2018-12-23T22:58:43.207Z,86.60
2018-12-23T23:03:19.000Z,86.60
2018-12-23T23:07:54.797Z,86.50
2018-12-23T23:12:30.539Z,86.60
2018-12-23T23:17:06.297Z,87.30
2018-12-23T23:21:42.048Z,86.80
2018-12-23T23:26:17.804Z,87.30
2018-12-23T23:30:53.548Z,87.40
2018-12-23T23:35:29.361Z,87.90
2018-12-23T23:40:05.168Z,88.10
2018-12-23T23:44:40.929Z,87.50
2018-12-23T23:49:16.671Z,87.90
2018-12-23T23:53:52.441Z,88.50
2018-12-23T23:58:28.198Z,87.80
